Time;durP1;ratioP1;P1;durP2;ratioP2;P2;SDS_P1;SDS_P2;PMS_P1;PMS_P2;Temp;Humidity;BMP_temperature;BMP_pressure;BME280_temperature;BME280_humidity;BME280_pressure;Samples;Min_cycle;Max_cycle;Signal;HPM_P1;HPM_P2
2023/03/14 00:02:20;;;;;;;11.38;3.38;;;;;;;12.85;100.00;98832.97;5112239;28;20474;-65
2023/03/14 00:04:47;;;;;;;9.88;3.08;;;;;;;12.89;100.00;98833.09;5114089;28;20130;-67
2023/03/14 00:07:15;;;;;;;7.90;2.92;;;;;;;12.90;99.63;98831.97;5113602;28;20071;-65
2023/03/14 00:09:43;;;;;;;10.05;3.50;;;;;;;12.82;97.94;98827.34;5113294;28;20043;-66
2023/03/14 00:12:10;;;;;;;8.60;3.00;;;;;;;12.73;97.04;98836.41;5114151;28;20048;-65
2023/03/14 00:14:38;;;;;;;7.30;2.42;;;;;;;12.63;96.95;98814.13;5106206;28;20044;-65
2023/03/14 00:17:06;;;;;;;8.63;2.80;;;;;;;12.76;96.01;98829.50;5093638;28;20048;-66
2023/03/14 00:19:33;;;;;;;15.10;3.42;;;;;;;12.71;94.88;98826.97;5094917;28;20065;-65
2023/03/14 00:22:01;;;;;;;6.80;2.83;;;;;;;12.67;93.92;98818.59;5101854;28;20047;-66
2023/03/14 00:24:29;;;;;;;7.88;2.45;;;;;;;12.71;94.88;98822.28;5113515;28;20453;-66
2023/03/14 00:26:56;;;;;;;8.48;2.63;;;;;;;12.84;94.79;98836.03;5112517;28;20040;-66
2023/03/14 00:29:24;;;;;;;3.35;1.70;;;;;;;12.89;96.08;98824.91;5112780;28;20055;-66
2023/03/14 00:31:53;;;;;;;9.00;3.08;;;;;;;12.79;91.65;98840.56;5096279;28;20090;-65
2023/03/14 00:34:21;;;;;;;8.00;2.88;;;;;;;12.68;90.41;98839.34;5093440;28;20044;-65
2023/03/14 00:36:48;;;;;;;8.20;2.70;;;;;;;12.60;91.15;98845.66;5091770;28;20047;-66
2023/03/14 00:39:16;;;;;;;9.32;2.83;;;;;;;12.51;90.87;98844.91;5100009;27;20040;-65
2023/03/14 00:41:43;;;;;;;11.45;3.28;;;;;;;12.40;90.69;98846.41;5096425;28;20055;-65
2023/03/14 00:44:11;;;;;;;10.98;3.08;;;;;;;12.38;89.79;98857.66;5079219;28;20078;-64
2023/03/14 00:46:39;;;;;;;8.60;2.97;;;;;;;12.40;90.04;98849.94;5096954;28;20048;-66
2023/03/14 00:49:07;;;;;;;8.80;2.75;;;;;;;12.45;90.76;98854.41;5064039;28;20051;-66
2023/03/14 00:51:35;;;;;;;9.15;2.40;;;;;;;12.50;89.96;98854.22;5095754;28;20058;-65
2023/03/14 00:54:02;;;;;;;9.40;3.00;;;;;;;12.40;88.61;98854.59;5096976;28;20146;-66
2023/03/14 00:56:31;;;;;;;9.18;2.78;;;;;;;12.39;89.98;98856.53;5083133;28;20047;-65
2023/03/14 00:58:59;;;;;;;8.75;2.47;;;;;;;12.31;87.60;98855.47;5113595;28;20048;-65
2023/03/14 01:01:26;;;;;;;7.25;1.92;;;;;;;12.30;87.89;98856.56;5096406;28;20495;-67
2023/03/14 01:03:55;;;;;;;10.70;2.90;;;;;;;12.22;86.96;98856.59;5095811;28;20462;-66
2023/03/14 01:06:26;;;;;;;6.47;2.42;;;;;;;12.20;87.03;98854.22;5080108;27;20459;-66
2023/03/14 01:08:54;;;;;;;2.97;1.38;;;;;;;12.18;87.45;98856.47;5096279;28;20040;-66
2023/03/14 01:11:24;;;;;;;7.13;2.60;;;;;;;12.20;87.63;98847.94;5096931;28;20114;-67
2023/03/14 01:13:53;;;;;;;8.20;2.22;;;;;;;12.15;87.22;98851.66;5096991;28;20040;-67
2023/03/14 01:16:22;;;;;;;12.18;2.90;;;;;;;12.21;88.04;98846.81;5116132;28;20437;-66
2023/03/14 01:18:50;;;;;;;7.85;2.42;;;;;;;12.32;87.44;98843.38;5095488;28;20082;-66
2023/03/14 01:21:30;;;;;;;9.93;2.70;;;;;;;12.35;87.58;98831.81;5096428;28;20514;-66
2023/03/14 01:23:59;;;;;;;9.48;2.60;;;;;;;12.31;87.13;98840.97;5096484;28;20071;-65
2023/03/14 01:26:29;;;;;;;8.50;2.40;;;;;;;12.27;87.04;98849.03;5094996;28;20040;-66
2023/03/14 01:28:57;;;;;;;6.95;2.22;;;;;;;12.28;89.50;98847.91;5100136;27;20043;-66
2023/03/14 01:31:26;;;;;;;9.32;3.03;;;;;;;12.15;88.40;98843.47;5095214;28;20055;-65
2023/03/14 01:33:54;;;;;;;8.95;2.35;;;;;;;12.14;89.37;98845.38;5082228;28;20047;-65
2023/03/14 01:36:22;;;;;;;9.13;2.60;;;;;;;12.15;88.68;98829.81;5094800;28;20052;-66
2023/03/14 01:38:50;;;;;;;9.40;2.75;;;;;;;12.14;88.97;98831.72;5096328;28;20075;-66
2023/03/14 01:41:24;;;;;;;11.95;3.17;;;;;;;12.40;87.96;98817.16;5078589;28;20526;-65
2023/03/14 01:43:53;;;;;;;7.43;2.38;;;;;;;12.34;87.51;98822.03;5094861;28;20052;-66
2023/03/14 01:46:25;;;;;;;4.65;1.70;;;;;;;12.46;94.50;98820.50;5095031;28;20048;-66
2023/03/14 01:49:21;;;;;;;8.05;2.70;;;;;;;12.43;89.27;98816.50;5095577;28;20044;-65
2023/03/14 01:52:02;;;;;;;8.48;2.63;;;;;;;12.22;87.91;98805.53;5095744;28;20044;-65
2023/03/14 01:54:34;;;;;;;6.30;2.20;;;;;;;12.16;88.81;98806.84;5078994;28;20063;-65
2023/03/14 01:57:22;;;;;;;3.38;1.75;;;;;;;12.30;89.18;98810.16;5095798;28;20051;-65
2023/03/14 02:00:01;;;;;;;7.00;2.40;;;;;;;12.17;88.32;98805.72;5071206;28;20079;-66
2023/03/14 02:02:44;;;;;;;6.85;2.40;;;;;;;12.17;91.66;98793.97;5095180;28;20127;-65
2023/03/14 02:05:34;;;;;;;4.93;2.00;;;;;;;12.15;92.33;98799.78;5079875;28;20131;-66
2023/03/14 02:08:20;;;;;;;10.10;2.93;;;;;;;12.22;89.28;98793.78;5095796;28;20054;-64
2023/03/14 02:10:53;;;;;;;10.13;2.65;;;;;;;12.11;89.70;98801.56;5084819;28;20117;-66
2023/03/14 02:13:29;;;;;;;11.23;3.35;;;;;;;12.15;91.94;98806.03;5094687;28;20487;-66
2023/03/14 02:16:15;;;;;;;6.57;2.08;;;;;;;12.07;91.37;98803.34;5094654;28;20044;-65
2023/03/14 02:18:52;;;;;;;7.85;2.40;;;;;;;11.96;91.40;98802.13;5094260;28;20492;-68
2023/03/14 02:21:53;;;;;;;9.20;2.83;;;;;;;12.08;91.92;98794.03;5096142;27;20055;-66
2023/03/14 02:24:54;;;;;;;8.77;2.72;;;;;;;12.09;92.74;98801.88;5077962;28;20044;-67
2023/03/14 02:27:22;;;;;;;7.32;2.72;;;;;;;12.03;91.76;98799.69;5095318;28;20044;-64
2023/03/14 02:29:53;;;;;;;6.55;2.40;;;;;;;11.89;92.29;98792.50;5060943;28;20048;-66
2023/03/14 02:32:22;;;;;;;11.05;2.92;;;;;;;11.86;94.01;98801.31;5092749;28;20407;-66
2023/03/14 02:34:54;;;;;;;13.38;3.22;;;;;;;11.74;95.33;98795.75;5093951;28;20082;-66
2023/03/14 02:37:26;;;;;;;10.52;3.00;;;;;;;11.68;96.30;98797.81;5093706;28;20052;-66
2023/03/14 02:39:54;;;;;;;7.85;2.40;;;;;;;11.73;96.18;98794.13;5077240;28;20043;-66
2023/03/14 02:42:22;;;;;;;9.90;2.88;;;;;;;11.69;96.88;98793.97;5077752;28;20488;-66
2023/03/14 02:44:59;;;;;;;3.30;1.23;;;;;;;11.90;100.00;98777.72;5090748;28;20056;-65
2023/03/14 02:47:29;;;;;;;8.63;2.85;;;;;;;11.98;95.68;98789.75;5078929;28;20093;-65
2023/03/14 02:50:12;;;;;;;7.20;2.35;;;;;;;11.97;96.27;98792.78;5097259;28;20078;-66
2023/03/14 02:52:40;;;;;;;4.25;2.25;;;;;;;11.93;96.23;98782.53;5101071;27;20051;-66
2023/03/14 02:55:08;;;;;;;12.70;3.42;;;;;;;11.85;93.71;98786.03;5060310;28;20077;-64
2023/03/14 02:57:39;;;;;;;10.65;3.40;;;;;;;11.85;93.75;98796.97;5093399;28;20418;-64
2023/03/14 03:00:08;;;;;;;10.32;2.88;;;;;;;11.83;93.77;98788.28;5096086;28;20047;-64
2023/03/14 03:02:40;;;;;;;11.73;3.28;;;;;;;11.91;93.57;98784.00;5117009;27;20081;-56
2023/03/14 03:05:08;;;;;;;10.43;3.15;;;;;;;11.82;93.14;98785.91;5131903;28;20048;-62
2023/03/14 03:07:36;;;;;;;7.75;2.70;;;;;;;11.88;95.35;98784.63;5123643;28;20088;-64
2023/03/14 03:10:05;;;;;;;11.27;3.30;;;;;;;11.81;93.68;98779.66;5125052;28;20040;-61
2023/03/14 03:12:33;;;;;;;15.15;3.80;;;;;;;11.84;94.38;98784.47;5135297;27;20055;-58
2023/03/14 03:15:01;;;;;;;7.75;2.17;;;;;;;11.80;94.91;98788.97;5148229;27;20055;-64
2023/03/14 03:17:29;;;;;;;14.35;3.50;;;;;;;11.94;95.51;98794.25;5139374;27;20056;-65
2023/03/14 03:19:57;;;;;;;11.63;3.20;;;;;;;12.04;96.61;98788.41;5118177;27;20092;-67
2023/03/14 03:22:26;;;;;;;9.30;3.03;;;;;;;12.02;95.66;98778.97;5117264;27;20138;-66
2023/03/14 03:24:53;;;;;;;7.25;2.58;;;;;;;12.09;97.59;98787.44;5115602;27;20055;-66
2023/03/14 03:27:21;;;;;;;12.73;3.70;;;;;;;12.01;94.73;98777.38;5097134;28;20377;-66
2023/03/14 03:29:49;;;;;;;9.30;2.83;;;;;;;12.05;97.17;98770.09;5113326;28;20044;-65
2023/03/14 03:32:17;;;;;;;7.13;2.40;;;;;;;12.05;98.54;98767.38;5096415;28;20050;-65
2023/03/14 03:34:45;;;;;;;10.07;2.88;;;;;;;11.93;95.44;98770.81;5092524;28;20046;-66
2023/03/14 03:37:13;;;;;;;11.15;3.03;;;;;;;11.95;96.82;98765.81;5112514;28;20487;-66
2023/03/14 03:39:42;;;;;;;10.75;3.08;;;;;;;11.96;95.67;98777.56;5104065;27;20442;-65
2023/03/14 03:42:11;;;;;;;12.70;3.40;;;;;;;11.80;94.50;98769.84;5076550;28;20055;-66
2023/03/14 03:44:39;;;;;;;7.28;2.33;;;;;;;11.70;95.18;98773.75;5101125;27;20054;-66
2023/03/14 03:47:09;;;;;;;9.45;2.55;;;;;;;11.93;99.23;98766.16;5113072;28;20476;-65
2023/03/14 03:49:36;;;;;;;7.75;2.22;;;;;;;11.85;95.31;98764.22;5113265;28;20100;-65
2023/03/14 03:52:05;;;;;;;7.85;2.15;;;;;;;11.90;96.50;98761.34;5095422;28;20039;-66
2023/03/14 03:54:32;;;;;;;16.70;3.92;;;;;;;11.85;96.39;98753.31;5094997;28;20504;-65
2023/03/14 03:57:00;;;;;;;10.57;2.72;;;;;;;11.80;96.33;98761.66;5113054;28;20051;-67
2023/03/14 03:59:28;;;;;;;11.25;3.17;;;;;;;11.75;95.22;98764.59;5096211;28;20564;-66
2023/03/14 04:01:56;;;;;;;6.28;2.22;;;;;;;11.81;98.50;98757.84;5079050;28;20065;-67
2023/03/14 04:04:23;;;;;;;10.27;2.97;;;;;;;11.87;96.73;98756.53;5096036;28;20077;-65
2023/03/14 04:06:52;;;;;;;7.88;2.80;;;;;;;11.75;94.30;98759.13;5096211;28;20071;-65
2023/03/14 04:09:20;;;;;;;9.20;3.00;;;;;;;11.69;94.96;98755.00;5113215;28;20043;-65
2023/03/14 04:12:07;;;;;;;8.98;2.90;;;;;;;11.61;95.09;98753.88;5112825;28;20392;-65
2023/03/14 04:14:48;;;;;;;6.28;2.30;;;;;;;11.71;97.24;98758.16;5099976;28;20089;-66
2023/03/14 04:17:20;;;;;;;8.63;2.22;;;;;;;11.68;95.06;98750.66;5096506;28;20562;-66
2023/03/14 04:19:51;;;;;;;8.02;2.13;;;;;;;11.66;95.74;98748.22;5097096;28;20058;-65
2023/03/14 04:22:21;;;;;;;10.07;2.80;;;;;;;11.69;95.25;98760.44;5079507;28;20091;-65
2023/03/14 04:24:51;;;;;;;4.65;1.90;;;;;;;11.98;99.60;98747.97;5080664;28;20130;-66
2023/03/14 04:27:20;;;;;;;4.60;1.88;;;;;;;12.17;100.00;98745.66;5092577;28;20043;-66
2023/03/14 04:29:48;;;;;;;3.42;1.23;;;;;;;12.03;100.00;98745.09;5116943;28;20046;-66
2023/03/14 04:32:21;;;;;;;5.85;2.05;;;;;;;11.96;98.96;98753.00;5116572;28;20052;-67
2023/03/14 04:34:50;;;;;;;6.25;2.13;;;;;;;11.86;100.00;98751.41;5116109;27;20427;-66
2023/03/14 04:37:17;;;;;;;6.07;2.30;;;;;;;11.89;100.00;98748.84;5116437;28;20070;-66
2023/03/14 04:39:45;;;;;;;11.00;2.10;;;;;;;11.81;100.00;98746.09;5116980;28;20497;-64
2023/03/14 04:42:17;;;;;;;9.30;2.47;;;;;;;11.69;99.85;98746.81;5100227;28;20079;-66
2023/03/14 04:44:49;;;;;;;7.43;2.70;;;;;;;11.63;100.00;98745.38;5098686;28;20058;-65
2023/03/14 04:47:18;;;;;;;6.03;2.45;;;;;;;11.62;100.00;98743.78;5096106;28;20037;-66
2023/03/14 04:49:47;;;;;;;10.48;2.92;;;;;;;11.67;100.00;98746.31;5079570;28;20132;-65
2023/03/14 04:52:16;;;;;;;5.35;2.30;;;;;;;11.66;100.00;98734.59;5079057;28;20119;-66
2023/03/14 04:54:44;;;;;;;10.38;2.78;;;;;;;11.52;99.64;98745.72;5078841;28;20051;-66
2023/03/14 04:57:12;;;;;;;7.65;2.17;;;;;;;11.57;100.00;98739.31;5110697;27;20101;-65
2023/03/14 04:59:40;;;;;;;8.38;2.80;;;;;;;11.64;100.00;98730.59;5098912;28;20048;-66
2023/03/14 05:02:21;;;;;;;8.93;2.67;;;;;;;11.55;100.00;98744.28;5079175;28;20110;-65
2023/03/14 05:05:09;;;;;;;4.28;1.70;;;;;;;11.45;100.00;98739.97;5094943;28;20118;-65
2023/03/14 05:08:06;;;;;;;3.53;1.58;;;;;;;11.47;100.00;98748.63;5096486;27;20526;-67
2023/03/14 05:10:53;;;;;;;5.30;1.92;;;;;;;11.39;100.00;98749.44;5114924;28;20047;-66
2023/03/14 05:13:46;;;;;;;4.50;1.77;;;;;;;11.33;100.00;98750.75;5114316;28;20497;-66
2023/03/14 05:16:42;;;;;;;2.85;1.55;;;;;;;11.35;100.00;98751.19;5077496;28;20083;-66
2023/03/14 05:19:42;;;;;;;4.00;1.55;;;;;;;11.56;100.00;98739.63;5081331;28;20412;-66
2023/03/14 05:22:30;;;;;;;5.18;2.30;;;;;;;11.50;100.00;98739.78;5073200;28;20059;-66
2023/03/14 05:25:00;;;;;;;2.45;1.20;;;;;;;11.39;100.00;98746.72;5105986;28;20039;-66
2023/03/14 05:27:34;;;;;;;2.75;1.48;;;;;;;11.25;100.00;98733.25;5115021;27;20372;-66
2023/03/14 05:30:21;;;;;;;3.85;1.50;;;;;;;11.21;100.00;98729.59;5116943;28;20223;-66
2023/03/14 05:33:07;;;;;;;4.03;1.83;;;;;;;11.35;100.00;98723.94;5115970;28;20047;-66
2023/03/14 05:35:56;;;;;;;4.75;1.90;;;;;;;11.49;100.00;98724.53;5117288;28;20043;-68
2023/03/14 05:38:54;;;;;;;5.47;2.20;;;;;;;11.27;100.00;98724.78;5116074;27;20568;-66
2023/03/14 05:41:48;;;;;;;3.97;1.83;;;;;;;11.20;100.00;98725.25;5101573;28;20431;-67
2023/03/14 05:44:42;;;;;;;7.10;2.33;;;;;;;11.11;100.00;98727.19;5116755;28;20055;-66
2023/03/14 05:47:29;;;;;;;3.33;1.67;;;;;;;11.06;100.00;98722.75;5118092;28;20066;-66
2023/03/14 05:50:17;;;;;;;4.35;1.42;;;;;;;11.23;100.00;98721.09;5103435;28;20036;-68
2023/03/14 05:53:03;;;;;;;2.33;1.50;;;;;;;11.60;100.00;98708.63;5114615;28;20099;-66
2023/03/14 05:55:31;;;;;;;6.50;2.10;;;;;;;11.62;100.00;98705.59;5090660;28;20431;-66
2023/03/14 05:58:27;;;;;;;4.47;1.70;;;;;;;11.55;100.00;98697.13;5093159;28;20059;-66
2023/03/14 06:01:20;;;;;;;2.70;1.48;;;;;;;11.41;100.00;98705.50;5100820;28;20079;-65
2023/03/14 06:04:13;;;;;;;4.55;1.88;;;;;;;11.67;100.00;98691.78;5081416;27;20048;-66
2023/03/14 06:06:41;;;;;;;3.47;1.63;;;;;;;11.57;100.00;98692.94;5114657;28;20043;-64
2023/03/14 06:09:10;;;;;;;5.38;2.08;;;;;;;11.54;100.00;98703.69;5114627;28;20130;-64
2023/03/14 06:11:42;;;;;;;7.70;2.35;;;;;;;11.48;100.00;98701.13;5115472;28;20431;-66
2023/03/14 06:14:11;;;;;;;6.80;2.05;;;;;;;11.54;100.00;98700.97;5096901;28;20220;-66
2023/03/14 06:16:42;;;;;;;5.57;1.95;;;;;;;11.47;100.00;98705.00;5110787;27;20501;-64
2023/03/14 06:19:11;;;;;;;6.78;2.30;;;;;;;11.37;100.00;98716.25;5097432;28;20071;-64
2023/03/14 06:21:40;;;;;;;3.63;1.58;;;;;;;11.32;100.00;98710.97;5114831;28;20055;-66
2023/03/14 06:24:08;;;;;;;6.45;2.25;;;;;;;11.21;100.00;98718.69;5115178;28;20044;-64
2023/03/14 06:26:41;;;;;;;8.10;2.42;;;;;;;11.15;100.00;98719.19;5049977;28;20051;-64
2023/03/14 06:29:10;;;;;;;6.95;2.42;;;;;;;11.18;100.00;98721.25;5093710;28;20097;-65
2023/03/14 06:31:38;;;;;;;5.75;2.15;;;;;;;11.30;100.00;98721.38;5111111;28;20052;-69
2023/03/14 06:34:07;;;;;;;4.60;1.88;;;;;;;11.23;100.00;98715.63;5094084;28;20075;-66
2023/03/14 06:36:35;;;;;;;7.60;2.42;;;;;;;11.18;100.00;98715.81;5095728;28;20043;-66
2023/03/14 06:39:03;;;;;;;3.72;1.88;;;;;;;11.17;100.00;98720.47;5094113;28;20051;-67
2023/03/14 06:41:34;;;;;;;6.05;2.38;;;;;;;11.18;100.00;98723.97;5093581;28;20514;-65
2023/03/14 06:44:02;;;;;;;3.83;1.95;;;;;;;11.18;100.00;98729.44;4393486;28;10000572;-66
2023/03/14 06:46:30;;;;;;;3.50;1.45;;;;;;;11.22;100.00;98724.94;5097574;27;20526;-67
2023/03/14 06:48:58;;;;;;;5.45;2.15;;;;;;;11.27;100.00;98722.84;5093523;28;20063;-64
2023/03/14 06:51:26;;;;;;;6.75;2.17;;;;;;;11.25;100.00;98718.84;5093945;28;20051;-69
2023/03/14 06:53:54;;;;;;;2.13;1.40;;;;;;;11.25;100.00;98727.03;5121621;28;20116;-66
2023/03/14 06:56:25;;;;;;;6.28;2.50;;;;;;;11.20;100.00;98729.91;5134518;27;20048;-63
2023/03/14 06:58:55;;;;;;;5.13;2.42;;;;;;;11.16;100.00;98728.94;5105006;28;20075;-67
2023/03/14 07:01:26;;;;;;;4.40;2.63;;;;;;;11.18;100.00;98730.22;5098453;28;20063;-62
2023/03/14 07:04:00;;;;;;;7.73;2.70;;;;;;;11.15;100.00;98735.53;5112925;28;20055;-64
2023/03/14 07:06:31;;;;;;;5.60;2.40;;;;;;;11.12;100.00;98747.91;5130335;28;20302;-64
2023/03/14 07:08:59;;;;;;;5.88;2.10;;;;;;;11.11;100.00;98740.03;5128730;27;20039;-67
2023/03/14 07:11:29;;;;;;;2.83;1.67;;;;;;;11.13;100.00;98745.97;5093914;27;20044;-67
2023/03/14 07:13:57;;;;;;;5.50;2.50;;;;;;;11.12;100.00;98747.09;5112799;27;20480;-67
2023/03/14 07:16:28;;;;;;;5.43;2.60;;;;;;;11.08;100.00;98753.16;5108434;27;20040;-67
2023/03/14 07:18:56;;;;;;;7.22;3.08;;;;;;;11.03;100.00;98749.81;5110858;28;20056;-67
2023/03/14 07:21:25;;;;;;;4.90;2.47;;;;;;;11.05;100.00;98753.81;5092861;28;20043;-67
2023/03/14 07:23:53;;;;;;;4.68;2.28;;;;;;;11.07;100.00;98751.59;5092489;27;20414;-66
2023/03/14 07:26:21;;;;;;;5.93;2.85;;;;;;;11.09;100.00;98754.78;5106575;28;20079;-67
2023/03/14 07:28:51;;;;;;;7.72;3.22;;;;;;;11.02;100.00;98838.94;5073364;28;20135;-65
2023/03/14 07:31:20;;;;;;;3.50;2.00;;;;;;;10.39;100.00;98845.69;5055644;28;20052;-70
2023/03/14 07:33:48;;;;;;;4.75;2.30;;;;;;;9.97;100.00;98851.44;5078336;28;20496;-66
2023/03/14 07:36:17;;;;;;;3.63;1.50;;;;;;;9.73;100.00;98870.81;5058087;28;20063;-67
2023/03/14 07:38:45;;;;;;;3.38;1.90;;;;;;;9.62;100.00;98877.63;5076054;28;20047;-67
2023/03/14 07:41:35;;;;;;;3.75;1.70;;;;;;;9.42;100.00;98884.34;5100307;28;20059;-66
2023/03/14 07:44:41;;;;;;;3.17;1.83;;;;;;;9.37;100.00;98893.41;5060886;28;20052;-67
2023/03/14 07:47:09;;;;;;;3.55;1.60;;;;;;;9.38;100.00;98911.34;5067067;28;20432;-65
2023/03/14 07:49:38;;;;;;;2.75;1.70;;;;;;;9.36;100.00;98924.44;5088735;28;20102;-65
2023/03/14 07:52:06;;;;;;;2.38;1.55;;;;;;;9.36;100.00;98919.00;5093305;28;20058;-66
2023/03/14 07:54:34;;;;;;;3.00;1.60;;;;;;;9.26;100.00;98924.69;5075604;28;20130;-64
2023/03/14 07:57:02;;;;;;;5.65;1.90;;;;;;;9.25;100.00;98936.63;5093068;28;20393;-66
2023/03/14 07:59:30;;;;;;;5.90;1.90;;;;;;;9.29;100.00;98953.16;5092485;28;20412;-66
2023/03/14 08:01:57;;;;;;;6.60;2.47;;;;;;;9.34;100.00;98948.41;5093313;28;20040;-65
2023/03/14 08:04:27;;;;;;;4.07;1.80;;;;;;;9.31;100.00;98957.16;5092942;28;20108;-64
2023/03/14 08:06:54;;;;;;;2.58;1.63;;;;;;;9.22;100.00;98967.16;5101943;28;20050;-65
2023/03/14 08:09:22;;;;;;;4.15;1.80;;;;;;;9.16;100.00;98976.50;5106858;28;20071;-65
2023/03/14 08:11:49;;;;;;;3.10;1.75;;;;;;;9.14;100.00;98984.19;5112909;28;20571;-66
2023/03/14 08:14:17;;;;;;;3.20;1.67;;;;;;;9.03;100.00;98999.06;5113608;28;20078;-66
2023/03/14 08:16:45;;;;;;;4.20;2.20;;;;;;;8.97;100.00;98995.63;5107114;28;20531;-65
2023/03/14 08:19:12;;;;;;;6.03;2.30;;;;;;;8.99;100.00;99017.88;5093742;28;20044;-66
2023/03/14 08:21:40;;;;;;;3.88;1.95;;;;;;;8.95;100.00;99017.69;5092061;28;20079;-66
2023/03/14 08:24:08;;;;;;;4.55;1.98;;;;;;;8.94;100.00;99026.91;5075937;28;20081;-67
2023/03/14 08:26:35;;;;;;;5.55;2.42;;;;;;;8.91;100.00;99032.16;5092840;28;20407;-65
2023/03/14 08:29:04;;;;;;;4.10;2.20;;;;;;;8.94;100.00;99054.06;5109929;28;20043;-67
2023/03/14 08:31:32;;;;;;;4.38;2.05;;;;;;;8.90;100.00;99061.25;5113962;28;20054;-67
2023/03/14 08:34:00;;;;;;;5.43;2.10;;;;;;;8.93;100.00;99068.78;5113903;28;20070;-65
2023/03/14 08:36:28;;;;;;;5.35;2.10;;;;;;;9.00;100.00;99081.97;5062419;28;20058;-65
2023/03/14 08:38:57;;;;;;;7.20;2.20;;;;;;;8.92;100.00;99088.91;5113556;28;20048;-65
2023/03/14 08:41:25;;;;;;;6.72;2.45;;;;;;;8.88;100.00;99087.09;5112470;28;20032;-67
2023/03/14 08:43:52;;;;;;;8.88;2.30;;;;;;;8.88;100.00;99109.63;5112442;28;20052;-66
2023/03/14 08:46:20;;;;;;;5.20;1.88;;;;;;;8.80;100.00;99096.72;5112642;28;20126;-67
2023/03/14 08:48:48;;;;;;;6.45;2.20;;;;;;;8.89;100.00;99126.72;5112396;28;20403;-64
2023/03/14 08:51:17;;;;;;;7.68;2.33;;;;;;;8.85;100.00;99115.66;5113607;28;20449;-65
2023/03/14 08:53:45;;;;;;;5.25;2.40;;;;;;;8.79;100.00;99130.41;5110705;28;20044;-67
2023/03/14 08:56:12;;;;;;;5.60;2.10;;;;;;;8.58;100.00;99135.38;5119116;28;20055;-66
2023/03/14 08:58:41;;;;;;;6.80;2.50;;;;;;;8.61;100.00;99147.53;5112168;28;20048;-71
2023/03/14 09:01:09;;;;;;;5.72;2.50;;;;;;;8.61;100.00;99158.41;5062767;28;20048;-66
2023/03/14 09:03:38;;;;;;;6.70;2.30;;;;;;;8.58;100.00;99167.13;5100145;27;20047;-66
2023/03/14 09:06:08;;;;;;;7.20;2.20;;;;;;;8.60;100.00;99175.78;5116729;28;20074;-65
2023/03/14 09:08:36;;;;;;;3.88;2.22;;;;;;;8.60;100.00;99189.38;5115958;28;20054;-65
2023/03/14 09:11:09;;;;;;;6.88;2.38;;;;;;;8.55;100.00;99201.13;5116146;28;20047;-65
2023/03/14 09:13:37;;;;;;;3.90;1.83;;;;;;;8.62;100.00;99200.75;5117607;28;20151;-66
2023/03/14 09:16:05;;;;;;;6.68;2.40;;;;;;;8.63;100.00;99207.78;5115277;27;20384;-66
2023/03/14 09:18:33;;;;;;;5.03;2.30;;;;;;;8.58;100.00;99245.88;5116149;28;20165;-66
2023/03/14 09:21:01;;;;;;;4.97;2.10;;;;;;;8.35;100.00;99275.47;5117144;28;20430;-67
2023/03/14 09:23:28;;;;;;;5.53;2.15;;;;;;;7.87;100.00;99291.75;5115402;28;20079;-65
2023/03/14 09:26:00;;;;;;;4.88;1.65;;;;;;;7.60;100.00;99289.56;5100679;27;20050;-65
2023/03/14 09:28:27;;;;;;;4.32;1.75;;;;;;;7.46;100.00;99314.66;5094828;28;20399;-65
2023/03/14 09:30:55;;;;;;;4.15;1.77;;;;;;;7.39;100.00;99326.91;5096196;28;20048;-63
2023/03/14 09:33:23;;;;;;;7.28;2.65;;;;;;;7.32;100.00;99323.72;5095315;28;20056;-65
2023/03/14 09:35:51;;;;;;;5.03;1.90;;;;;;;7.35;100.00;99337.50;5096513;28;20048;-66
2023/03/14 09:38:20;;;;;;;5.03;2.05;;;;;;;7.31;100.00;99341.88;5094698;28;20048;-65
2023/03/14 09:40:49;;;;;;;3.60;1.92;;;;;;;7.32;100.00;99356.22;5061971;28;20516;-67
2023/03/14 09:43:17;;;;;;;4.95;2.00;;;;;;;7.23;100.00;99362.22;5096016;28;20044;-65
2023/03/14 09:45:46;;;;;;;6.18;2.30;;;;;;;7.21;100.00;99388.78;5095886;28;20051;-66
2023/03/14 09:48:26;;;;;;;5.10;2.03;;;;;;;7.24;100.00;99382.84;5095196;28;20118;-65
2023/03/14 09:50:55;;;;;;;4.78;2.03;;;;;;;7.37;100.00;99396.84;5094779;28;20131;-65
2023/03/14 09:53:49;;;;;;;8.57;3.00;;;;;;;7.41;100.00;99406.03;5094157;28;20040;-65
2023/03/14 09:56:25;;;;;;;8.27;2.03;;;;;;;7.38;100.00;99417.41;5069650;28;20060;-66
2023/03/14 09:59:01;;;;;;;9.45;2.75;;;;;;;7.37;100.00;99424.72;5078332;28;20094;-66
2023/03/14 10:01:31;;;;;;;9.63;2.90;;;;;;;7.40;100.00;99451.25;5095364;28;20574;-66
2023/03/14 10:04:07;;;;;;;9.43;2.53;;;;;;;7.44;100.00;99463.16;5099546;28;20052;-65
2023/03/14 10:06:34;;;;;;;5.38;2.28;;;;;;;7.42;100.00;99484.31;5094786;28;20123;-66
2023/03/14 10:09:04;;;;;;;9.35;2.90;;;;;;;7.34;100.00;99465.94;5095863;28;20044;-66
2023/03/14 10:11:32;;;;;;;7.32;2.92;;;;;;;7.51;100.00;99503.50;5093706;28;20487;-66
2023/03/14 10:14:08;;;;;;;8.05;2.65;;;;;;;7.45;100.00;99497.28;5097248;28;20109;-67
2023/03/14 10:16:40;;;;;;;9.77;2.90;;;;;;;7.53;100.00;99539.28;5094488;28;20044;-67
2023/03/14 10:19:11;;;;;;;13.50;3.75;;;;;;;7.30;97.20;99577.88;5094784;28;20050;-65
2023/03/14 10:21:42;;;;;;;9.25;3.38;;;;;;;7.24;97.53;99541.88;5078450;28;20048;-66
2023/03/14 10:24:27;;;;;;;13.82;4.70;;;;;;;7.27;96.42;99554.03;5077866;28;20044;-66
2023/03/14 10:27:02;;;;;;;14.77;4.27;;;;;;;7.36;94.19;99576.75;5100180;27;20040;-67
2023/03/14 10:29:33;;;;;;;16.88;4.00;;;;;;;7.35;91.81;99572.41;5109035;27;20305;-66
2023/03/14 10:32:02;;;;;;;14.98;3.53;;;;;;;7.43;92.58;99591.63;5085929;28;20047;-66
2023/03/14 10:34:37;;;;;;;16.52;4.32;;;;;;;7.47;91.64;99591.88;5115744;28;20075;-66
2023/03/14 10:37:21;;;;;;;17.38;4.32;;;;;;;7.42;90.39;99610.88;5087175;28;20058;-67
2023/03/14 10:39:55;;;;;;;19.35;4.38;;;;;;;7.46;90.10;99615.47;5094029;28;20063;-66
2023/03/14 10:42:29;;;;;;;19.10;4.60;;;;;;;7.47;90.37;99625.19;5094029;28;20071;-66
2023/03/14 10:45:05;;;;;;;12.88;4.18;;;;;;;7.57;89.89;99640.63;5103956;28;20071;-66
2023/03/14 10:47:33;;;;;;;17.00;4.43;;;;;;;7.42;88.59;99644.19;5108943;27;20123;-67
2023/03/14 10:50:23;;;;;;;15.40;4.35;;;;;;;7.49;90.04;99660.16;5132365;28;20051;-63
2023/03/14 10:52:53;;;;;;;21.15;5.10;;;;;;;7.57;91.06;99673.13;5136703;28;20127;-64
2023/03/14 10:55:41;;;;;;;21.08;5.20;;;;;;;7.74;90.43;99693.69;5114504;28;20058;-66
2023/03/14 10:58:27;;;;;;;24.88;5.00;;;;;;;7.65;90.38;99669.06;5126802;28;20103;-59
2023/03/14 11:01:08;;;;;;;26.27;5.93;;;;;;;7.55;nan;99710.56;5135032;28;20051;-61
2023/03/14 11:03:37;;;;;;;27.73;6.40;;;;;;;7.45;88.81;99703.25;5108741;28;20095;-67
2023/03/14 11:06:18;;;;;;;21.40;5.15;;;;;;;7.54;90.55;99724.41;5121904;27;20380;-66
2023/03/14 11:08:56;;;;;;;19.17;4.75;;;;;;;7.56;89.58;99723.03;5101907;28;20039;-65
2023/03/14 11:11:29;;;;;;;26.48;5.63;;;;;;;7.60;88.77;99721.41;5097358;28;20105;-66
2023/03/14 11:14:29;;;;;;;22.92;5.28;;;;;;;7.76;91.30;99729.47;5112238;27;20131;-67
2023/03/14 11:17:02;;;;;;;26.50;6.18;;;;;;;7.78;93.75;99759.84;5076358;28;20050;-66
2023/03/14 11:19:43;;;;;;;16.67;4.32;;;;;;;7.28;100.00;99794.06;5093690;27;20044;-66
2023/03/14 11:22:33;;;;;;;14.85;4.05;;;;;;;7.04;100.00;99805.44;5093851;28;20044;-66
2023/03/14 11:25:26;;;;;;;20.70;5.53;;;;;;;6.85;100.00;99807.84;5113773;27;20047;-67
2023/03/14 11:28:02;;;;;;;24.38;5.25;;;;;;;6.96;100.00;99816.81;5113160;28;20071;-66
2023/03/14 11:30:56;;;;;;;21.40;4.97;;;;;;;6.89;100.00;99814.34;5113410;28;20050;-64
2023/03/14 11:33:38;;;;;;;17.10;4.53;;;;;;;7.00;100.00;99817.91;5113175;27;20085;-66
2023/03/14 11:36:07;;;;;;;21.13;4.93;;;;;;;7.09;100.00;99829.81;4378991;28;10000129;-66
2023/03/14 11:38:49;;;;;;;22.23;5.10;;;;;;;7.17;100.00;99853.69;5072160;28;20446;-66
2023/03/14 11:41:25;;;;;;;24.77;5.47;;;;;;;7.19;99.37;99835.25;5072572;28;20503;-66
2023/03/14 11:43:55;;;;;;;20.13;4.93;;;;;;;7.24;98.67;99853.41;5097184;28;20059;-66
2023/03/14 11:46:29;;;;;;;25.65;5.63;;;;;;;7.34;99.55;99863.44;5109159;28;20527;-66
2023/03/14 11:49:24;;;;;;;29.27;7.32;;;;;;;7.29;95.13;99871.56;5111393;28;20046;-66
2023/03/14 11:51:56;;;;;;;23.88;6.88;;;;;;;7.18;94.99;99876.97;5111209;28;20057;-66
2023/03/14 11:54:34;;;;;;;23.30;6.30;;;;;;;7.24;95.38;99870.47;5122020;27;20055;-64
2023/03/14 11:57:05;;;;;;;24.45;6.35;;;;;;;7.20;95.42;99882.13;5130038;27;20054;-65